createdAt,value
2019-03-28T00:01:49.366Z,77.00
2019-03-28T00:04:21.747Z,76.80
2019-03-28T00:06:55.200Z,77.20
2019-03-28T00:09:26.846Z,77.40
2019-03-28T00:11:59.306Z,77.50
2019-03-28T00:14:30.077Z,77.70
2019-03-28T00:17:02.455Z,77.50
2019-03-28T00:19:33.093Z,77.00
2019-03-28T00:22:05.693Z,77.10
2019-03-28T00:24:47.217Z,77.70
2019-03-28T00:27:18.025Z,78.60
2019-03-28T00:29:48.685Z,78.20
2019-03-28T00:32:19.370Z,78.00
2019-03-28T00:34:50.145Z,77.80
2019-03-28T00:37:22.707Z,77.90
2019-03-28T00:39:53.406Z,77.50
2019-03-28T00:42:27.725Z,77.10
2019-03-28T00:44:58.251Z,76.60
2019-03-28T00:47:29.999Z,76.10
2019-03-28T00:50:00.642Z,76.20
2019-03-28T00:52:34.586Z,76.20
2019-03-28T00:55:08.001Z,76.30
2019-03-28T00:57:38.677Z,76.70
2019-03-28T01:00:16.260Z,77.40
2019-03-28T01:02:42.324Z,77.20
2019-03-28T01:05:15.921Z,77.30
2019-03-28T01:07:49.514Z,77.50
2019-03-28T01:10:22.726Z,77.90
2019-03-28T01:12:54.490Z,77.20
2019-03-28T01:15:26.241Z,77.40
2019-03-28T01:17:59.810Z,77.70
2019-03-28T01:20:33.196Z,78.20
2019-03-28T01:23:05.672Z,76.40
2019-03-28T01:25:36.374Z,76.50
2019-03-28T01:28:09.220Z,77.20
2019-03-28T01:30:39.832Z,77.30
2019-03-28T01:33:10.875Z,77.20
2019-03-28T01:35:44.706Z,77.50
2019-03-28T01:38:15.456Z,77.70
2019-03-28T01:40:48.165Z,78.00
2019-03-28T01:43:18.903Z,78.10
2019-03-28T01:45:52.984Z,77.80
2019-03-28T01:48:24.771Z,77.70
2019-03-28T01:50:57.235Z,77.50
2019-03-28T01:53:28.046Z,77.50
2019-03-28T01:56:00.451Z,78.20
2019-03-28T01:58:31.166Z,78.40
2019-03-28T02:01:02.977Z,78.30
2019-03-28T02:03:33.758Z,78.40
2019-03-28T02:06:06.138Z,78.40
2019-03-28T02:08:36.798Z,79.10
2019-03-28T02:11:07.747Z,79.00
2019-03-28T02:13:39.589Z,79.10
2019-03-28T02:16:13.177Z,78.30
2019-03-28T02:18:44.835Z,78.10
2019-03-28T02:21:15.455Z,78.40
2019-03-28T02:23:47.915Z,78.90
2019-03-28T02:26:18.659Z,78.50
2019-03-28T02:28:49.361Z,78.30
2019-03-28T02:31:21.331Z,78.20
2019-03-28T02:33:51.962Z,78.20
2019-03-28T02:36:26.686Z,78.50
2019-03-28T02:38:57.032Z,78.40
2019-03-28T02:41:32.089Z,78.30
2019-03-28T02:44:02.750Z,79.00
2019-03-28T02:46:33.517Z,78.70
2019-03-28T02:49:05.508Z,78.40
2019-03-28T02:51:36.127Z,78.80
2019-03-28T02:54:06.974Z,79.20
2019-03-28T02:56:37.584Z,79.40
2019-03-28T02:59:10.379Z,79.00
2019-03-28T03:01:43.892Z,78.90
2019-03-28T03:04:14.310Z,78.70
2019-03-28T03:06:44.956Z,78.90
2019-03-28T03:09:19.268Z,78.60
2019-03-28T03:11:49.850Z,78.10
2019-03-28T03:14:21.233Z,78.60
2019-03-28T03:16:52.995Z,79.80
2019-03-28T03:19:23.611Z,78.70
2019-03-28T03:21:55.918Z,78.60
2019-03-28T03:24:26.629Z,78.00
2019-03-28T03:27:00.144Z,78.70
2019-03-28T03:29:30.820Z,78.60
2019-03-28T03:32:05.733Z,78.70
2019-03-28T03:34:37.601Z,78.10
2019-03-28T03:37:09.325Z,78.50
2019-03-28T03:39:40.076Z,78.80
2019-03-28T03:42:10.837Z,79.50
2019-03-28T03:44:42.168Z,79.60
2019-03-28T03:47:19.737Z,80.20
2019-03-28T03:49:50.600Z,80.60
2019-03-28T03:52:23.033Z,80.20
2019-03-28T03:54:58.627Z,78.80
2019-03-28T03:57:31.510Z,78.60
2019-03-28T04:00:01.876Z,78.90
2019-03-28T04:02:36.577Z,79.20
2019-03-28T04:05:07.725Z,79.50
2019-03-28T04:07:40.072Z,79.40
2019-03-28T04:10:16.987Z,79.30
2019-03-28T04:12:48.952Z,79.00
2019-03-28T04:15:19.662Z,78.60
2019-03-28T04:17:50.367Z,78.20
2019-03-28T04:20:21.667Z,78.40
2019-03-28T04:22:52.338Z,78.70
2019-03-28T04:25:23.036Z,78.70
2019-03-28T04:27:53.700Z,78.50
2019-03-28T04:30:26.072Z,78.30
2019-03-28T04:33:01.653Z,78.30
2019-03-28T04:35:34.000Z,78.90
2019-03-28T04:38:04.884Z,78.70
2019-03-28T04:40:35.512Z,78.40
2019-03-28T04:43:06.162Z,78.00
2019-03-28T04:45:38.539Z,79.00
2019-03-28T04:48:09.210Z,79.10
2019-03-28T04:50:39.882Z,78.40
2019-03-28T04:53:11.510Z,78.20
2019-03-28T04:55:42.648Z,78.50
2019-03-28T04:58:14.519Z,79.20
2019-03-28T05:00:46.117Z,79.40
2019-03-28T05:03:20.589Z,79.20
2019-03-28T05:05:51.208Z,78.90
2019-03-28T05:08:21.864Z,80.10
2019-03-28T05:10:56.141Z,79.30
2019-03-28T05:13:26.515Z,78.50
2019-03-28T05:15:57.356Z,78.00
2019-03-28T05:18:29.515Z,77.20
2019-03-28T05:21:01.165Z,77.10
2019-03-28T05:23:31.969Z,76.80
2019-03-28T05:26:02.639Z,76.50
2019-03-28T05:28:33.367Z,76.50
2019-03-28T05:31:04.045Z,76.40
2019-03-28T05:33:34.803Z,76.80
2019-03-28T05:36:08.650Z,77.30
2019-03-28T05:38:40.455Z,77.60
2019-03-28T05:41:11.225Z,77.70
2019-03-28T05:43:42.035Z,78.60
2019-03-28T05:46:15.564Z,78.60
2019-03-28T05:48:50.234Z,78.20
2019-03-28T05:51:22.558Z,77.50
2019-03-28T05:53:56.258Z,76.80
2019-03-28T05:56:27.062Z,76.10
2019-03-28T05:59:09.812Z,76.00
2019-03-28T06:01:37.491Z,75.50
2019-03-28T06:04:08.424Z,75.10
2019-03-28T06:06:40.995Z,75.10
2019-03-28T06:09:12.914Z,74.90
2019-03-28T06:11:46.446Z,74.60
2019-03-28T06:14:20.052Z,73.80
2019-03-28T06:16:53.866Z,73.80
2019-03-28T06:19:27.624Z,73.80
2019-03-28T06:22:00.095Z,73.40
2019-03-28T06:24:31.239Z,73.40
2019-03-28T06:27:03.342Z,71.90
2019-03-28T06:29:34.002Z,72.00
2019-03-28T06:32:04.768Z,71.50
2019-03-28T06:34:36.486Z,71.00
2019-03-28T06:37:07.192Z,70.20
2019-03-28T06:39:37.794Z,70.80
2019-03-28T06:42:08.465Z,70.00
2019-03-28T06:44:40.414Z,68.80
2019-03-28T06:47:13.299Z,68.30
2019-03-28T06:49:44.029Z,68.20
2019-03-28T06:52:17.461Z,68.30
2019-03-28T06:54:50.001Z,68.70
2019-03-28T06:57:23.039Z,67.60
2019-03-28T06:59:54.019Z,66.50
2019-03-28T07:02:28.345Z,65.50
2019-03-28T07:05:00.412Z,64.10
2019-03-28T07:07:34.417Z,63.00
2019-03-28T07:10:12.254Z,62.50
2019-03-28T07:12:42.911Z,61.50
2019-03-28T07:15:15.841Z,60.20
2019-03-28T07:17:49.703Z,59.90
2019-03-28T07:20:21.143Z,59.00
2019-03-28T07:22:51.890Z,58.30
2019-03-28T07:25:25.408Z,57.40
2019-03-28T07:27:54.847Z,56.80
2019-03-28T07:30:30.763Z,56.90
2019-03-28T07:33:03.289Z,55.80
2019-03-28T07:35:33.761Z,54.10
2019-03-28T07:38:04.520Z,52.90
2019-03-28T07:40:35.218Z,53.40
2019-03-28T07:43:09.819Z,51.50
2019-03-28T07:45:40.492Z,51.00
2019-03-28T07:48:11.196Z,50.70
2019-03-28T07:50:42.650Z,50.90
2019-03-28T07:53:13.542Z,50.80
2019-03-28T07:55:44.428Z,50.60
2019-03-28T07:58:15.107Z,49.80
2019-03-28T08:00:45.764Z,50.50
2019-03-28T08:03:16.657Z,50.60
2019-03-28T08:05:47.296Z,52.40
2019-03-28T08:08:19.848Z,50.90
2019-03-28T08:10:50.668Z,50.70
2019-03-28T08:13:22.430Z,50.50
2019-03-28T08:15:53.188Z,49.20
2019-03-28T08:18:23.927Z,47.60
2019-03-28T08:20:55.953Z,45.50
2019-03-28T08:23:28.475Z,43.20
2019-03-28T08:26:01.048Z,41.60
2019-03-28T08:28:35.812Z,37.80
2019-03-28T08:31:06.440Z,36.70
2019-03-28T08:33:41.324Z,36.00
2019-03-28T08:36:14.346Z,36.40
2019-03-28T08:38:49.946Z,35.00
2019-03-28T08:41:26.672Z,33.60
2019-03-28T08:43:58.499Z,35.30
2019-03-28T08:46:29.301Z,35.40
2019-03-28T08:49:01.738Z,34.80
2019-03-28T08:51:35.607Z,34.20
2019-03-28T08:54:08.163Z,32.40
2019-03-28T08:56:38.651Z,31.00
2019-03-28T08:59:09.398Z,30.80
2019-03-28T09:01:42.433Z,30.40
2019-03-28T09:04:14.807Z,32.00
2019-03-28T09:06:47.555Z,33.70
2019-03-28T09:09:21.278Z,34.70
2019-03-28T09:11:54.828Z,34.10
2019-03-28T09:14:27.549Z,32.80
2019-03-28T09:16:59.527Z,31.90
2019-03-28T09:19:30.233Z,34.20
2019-03-28T09:22:01.030Z,34.80
2019-03-28T09:24:31.683Z,33.50
2019-03-28T09:27:02.413Z,30.70
2019-03-28T09:29:33.087Z,28.50
2019-03-28T09:32:04.096Z,26.50
2019-03-28T09:34:34.828Z,27.50
2019-03-28T09:37:05.621Z,24.80
2019-03-28T09:39:38.713Z,23.80
2019-03-28T09:42:08.686Z,21.70
2019-03-28T09:44:39.427Z,21.30
2019-03-28T09:47:10.172Z,19.50
2019-03-28T09:49:40.867Z,20.20
2019-03-28T09:52:11.625Z,20.50
2019-03-28T09:54:42.374Z,22.50
2019-03-28T09:57:13.200Z,24.00
2019-03-28T09:59:43.898Z,23.90
2019-03-28T10:02:14.658Z,23.00
2019-03-28T10:04:45.345Z,22.90
2019-03-28T10:07:16.115Z,20.50
2019-03-28T10:09:47.058Z,19.70
2019-03-28T10:12:18.007Z,20.50
2019-03-28T10:14:48.693Z,20.20
2019-03-28T10:17:19.358Z,20.40
2019-03-28T10:19:50.172Z,20.10
2019-03-28T10:22:22.337Z,21.30
2019-03-28T10:24:53.425Z,22.70
2019-03-28T10:27:25.860Z,21.70
2019-03-28T10:29:58.248Z,20.40
2019-03-28T10:32:28.924Z,19.60
2019-03-28T10:34:59.604Z,21.10
2019-03-28T10:37:30.288Z,19.00
2019-03-28T10:40:05.251Z,18.40
2019-03-28T10:42:35.867Z,21.70
2019-03-28T10:45:10.110Z,24.90
2019-03-28T10:47:42.440Z,26.10
2019-03-28T10:50:13.804Z,26.20
2019-03-28T10:52:44.543Z,27.10
2019-03-28T10:55:16.640Z,30.00
2019-03-28T10:57:47.630Z,30.10
2019-03-28T11:00:24.416Z,29.50
2019-03-28T11:02:51.088Z,29.00
2019-03-28T11:05:21.905Z,27.10
2019-03-28T11:07:52.651Z,28.70
2019-03-28T11:10:23.402Z,31.80
2019-03-28T11:12:54.081Z,31.80
2019-03-28T11:15:25.925Z,32.70
2019-03-28T11:17:56.550Z,34.00
2019-03-28T11:20:27.223Z,32.70
2019-03-28T11:23:02.239Z,33.30
2019-03-28T11:25:30.196Z,33.10
2019-03-28T11:28:00.884Z,32.60
2019-03-28T11:30:31.554Z,32.60
2019-03-28T11:33:02.327Z,31.20
2019-03-28T11:35:33.002Z,32.00
2019-03-28T11:38:03.821Z,33.00
2019-03-28T11:40:34.572Z,33.00
2019-03-28T11:43:05.362Z,32.20
2019-03-28T11:45:36.071Z,31.80
2019-03-28T11:48:06.820Z,32.40
2019-03-28T11:50:37.485Z,32.00
2019-03-28T11:53:08.167Z,31.80
2019-03-28T11:55:38.891Z,32.20
2019-03-28T11:58:09.582Z,33.00
2019-03-28T12:00:40.314Z,32.60
2019-03-28T12:03:12.857Z,35.80
2019-03-28T12:05:43.971Z,35.40
2019-03-28T12:08:17.031Z,35.60
2019-03-28T12:10:47.849Z,34.60
2019-03-28T12:13:18.589Z,33.50
2019-03-28T12:15:49.284Z,34.40
2019-03-28T12:18:20.057Z,34.80
2019-03-28T12:20:50.736Z,34.20
2019-03-28T12:23:22.384Z,34.90
2019-03-28T12:25:53.261Z,34.10
2019-03-28T12:28:23.907Z,32.40
2019-03-28T12:30:54.558Z,31.50
2019-03-28T12:33:25.213Z,31.10
2019-03-28T12:35:55.868Z,32.60
2019-03-28T12:38:26.602Z,33.70
2019-03-28T12:40:58.314Z,33.00
2019-03-28T12:43:30.829Z,33.20
2019-03-28T12:46:01.230Z,32.80
2019-03-28T12:48:31.969Z,34.10
2019-03-28T12:51:08.997Z,35.30
2019-03-28T12:53:41.286Z,35.70
2019-03-28T12:56:10.639Z,36.80
2019-03-28T12:58:42.868Z,37.10
2019-03-28T13:01:14.776Z,38.70
2019-03-28T13:03:48.355Z,38.80
2019-03-28T13:06:19.182Z,38.50
2019-03-28T13:08:49.854Z,37.20
2019-03-28T13:11:20.516Z,36.90
2019-03-28T13:13:55.405Z,36.60
2019-03-28T13:16:27.282Z,36.30
2019-03-28T13:18:58.496Z,36.50
2019-03-28T13:21:29.184Z,35.80
2019-03-28T13:23:59.875Z,36.50
2019-03-28T13:26:30.551Z,36.40
2019-03-28T13:29:02.907Z,36.00
2019-03-28T13:31:34.825Z,36.80
2019-03-28T13:34:07.451Z,36.00
2019-03-28T13:36:37.858Z,37.00
2019-03-28T13:39:12.073Z,38.20
2019-03-28T13:41:44.407Z,39.00
2019-03-28T13:44:15.056Z,39.20
2019-03-28T13:46:45.790Z,39.10
2019-03-28T13:49:16.565Z,38.90
2019-03-28T13:51:48.508Z,38.70
2019-03-28T13:54:23.307Z,38.60
2019-03-28T13:56:54.617Z,37.90
2019-03-28T13:59:25.311Z,37.60
2019-03-28T14:01:57.947Z,37.20
2019-03-28T14:04:28.424Z,36.00
2019-03-28T14:06:59.085Z,36.20
2019-03-28T14:09:31.643Z,36.00
2019-03-28T14:12:02.413Z,35.80
2019-03-28T14:14:33.206Z,36.80
2019-03-28T14:17:03.926Z,36.40
2019-03-28T14:19:34.567Z,36.80
2019-03-28T14:22:06.620Z,36.30
2019-03-28T14:24:37.357Z,37.40
2019-03-28T14:27:08.127Z,38.10
2019-03-28T14:29:38.882Z,37.70
2019-03-28T14:32:09.726Z,37.70
2019-03-28T14:34:40.441Z,38.60
2019-03-28T14:37:11.137Z,37.50
2019-03-28T14:39:41.878Z,37.30
2019-03-28T14:42:12.694Z,37.70
2019-03-28T14:44:43.300Z,39.00
2019-03-28T14:47:14.134Z,38.90
2019-03-28T14:49:44.979Z,39.80
2019-03-28T14:52:15.694Z,39.80
2019-03-28T14:54:46.439Z,39.20
2019-03-28T14:57:17.598Z,39.40
2019-03-28T14:59:49.864Z,39.10
2019-03-28T15:02:20.558Z,38.40
2019-03-28T15:04:55.287Z,37.40
2019-03-28T15:07:26.072Z,38.00
2019-03-28T15:09:56.758Z,38.70
2019-03-28T15:12:27.537Z,39.40
2019-03-28T15:14:58.195Z,39.50
2019-03-28T15:17:29.702Z,40.00
2019-03-28T15:20:00.653Z,39.70
2019-03-28T15:22:31.351Z,39.80
2019-03-28T15:25:02.074Z,40.70
2019-03-28T15:27:33.033Z,41.00
2019-03-28T15:30:04.781Z,41.20
2019-03-28T15:32:35.501Z,41.30
2019-03-28T15:35:06.938Z,40.70
2019-03-28T15:37:37.650Z,41.50
2019-03-28T15:40:09.419Z,41.80
2019-03-28T15:42:40.253Z,41.70
2019-03-28T15:45:11.355Z,41.30
2019-03-28T15:47:42.181Z,41.20
2019-03-28T15:50:13.031Z,41.20
2019-03-28T15:52:43.747Z,41.20
2019-03-28T15:55:18.587Z,41.10
2019-03-28T15:57:49.395Z,42.10
2019-03-28T16:00:20.451Z,42.60
2019-03-28T16:02:51.305Z,41.80
2019-03-28T16:05:22.024Z,40.90
2019-03-28T16:07:52.775Z,41.40
2019-03-28T16:10:23.504Z,41.20
2019-03-28T16:12:54.149Z,40.90
2019-03-28T16:15:24.896Z,41.40
2019-03-28T16:17:57.703Z,42.30
2019-03-28T16:20:28.031Z,42.40
2019-03-28T16:22:58.733Z,43.60
2019-03-28T16:25:29.519Z,43.20
2019-03-28T16:28:00.183Z,42.70
2019-03-28T16:30:36.328Z,41.90
2019-03-28T16:33:08.259Z,42.00
2019-03-28T16:35:39.018Z,43.00
2019-03-28T16:38:09.796Z,43.80
2019-03-28T16:40:40.600Z,43.50
2019-03-28T16:43:11.256Z,44.00
2019-03-28T16:45:41.957Z,44.70
2019-03-28T16:48:12.768Z,45.30
2019-03-28T16:50:43.468Z,45.30
2019-03-28T16:53:14.227Z,45.30
2019-03-28T16:55:45.026Z,44.70
2019-03-28T16:58:15.737Z,44.90
2019-03-28T17:00:47.687Z,45.50
2019-03-28T17:03:21.618Z,45.80
2019-03-28T17:05:57.897Z,46.10
2019-03-28T17:08:34.983Z,46.40
2019-03-28T17:11:05.781Z,46.50
2019-03-28T17:13:38.965Z,47.20
2019-03-28T17:16:11.633Z,47.90
2019-03-28T17:18:47.040Z,48.00
2019-03-28T17:21:16.490Z,48.10
2019-03-28T17:23:47.426Z,48.10
2019-03-28T17:26:18.108Z,48.20
2019-03-28T17:28:53.501Z,48.30
2019-03-28T17:31:21.381Z,48.50
2019-03-28T17:33:57.771Z,48.80
2019-03-28T17:36:29.576Z,49.20
2019-03-28T17:39:01.572Z,49.10
2019-03-28T17:41:33.322Z,50.30
2019-03-28T17:44:05.831Z,50.50
2019-03-28T17:46:37.632Z,51.10
2019-03-28T17:49:09.512Z,51.20
2019-03-28T17:51:40.566Z,51.60
2019-03-28T17:54:13.225Z,52.40
2019-03-28T17:56:43.704Z,52.20
2019-03-28T17:59:14.434Z,52.70
2019-03-28T18:01:45.324Z,53.00
2019-03-28T18:04:22.755Z,53.20
2019-03-28T18:06:50.595Z,53.40
2019-03-28T18:09:21.500Z,54.40
2019-03-28T18:11:53.278Z,54.00
2019-03-28T18:14:24.102Z,54.10
2019-03-28T18:16:54.938Z,54.30
2019-03-28T18:19:25.671Z,54.50
2019-03-28T18:22:03.319Z,54.50
2019-03-28T18:24:30.442Z,54.90
2019-03-28T18:27:01.322Z,55.20
2019-03-28T18:29:32.017Z,55.70
2019-03-28T18:32:02.791Z,56.40
2019-03-28T18:34:35.335Z,56.70
2019-03-28T18:37:08.026Z,57.00
2019-03-28T18:39:38.472Z,57.30
2019-03-28T18:42:14.047Z,57.90
2019-03-28T18:44:46.548Z,58.00
2019-03-28T18:47:17.846Z,58.20
2019-03-28T18:49:48.767Z,59.00
2019-03-28T18:52:19.543Z,59.80
2019-03-28T18:54:51.242Z,60.40
2019-03-28T18:57:22.032Z,60.70
2019-03-28T18:59:55.024Z,60.90
2019-03-28T19:02:25.833Z,61.40
2019-03-28T19:04:56.595Z,61.50
2019-03-28T19:07:27.503Z,61.50
2019-03-28T19:09:58.261Z,61.50
2019-03-28T19:12:28.955Z,61.30
2019-03-28T19:14:59.744Z,61.80
2019-03-28T19:17:30.434Z,62.10
2019-03-28T19:20:01.088Z,62.40
2019-03-28T19:22:31.748Z,62.30
2019-03-28T19:25:02.459Z,62.60
2019-03-28T19:27:33.204Z,63.30
2019-03-28T19:30:04.412Z,63.40
2019-03-28T19:32:35.098Z,63.70
2019-03-28T19:35:06.825Z,63.60
2019-03-28T19:37:38.783Z,63.90
2019-03-28T19:40:15.311Z,63.80
2019-03-28T19:42:46.313Z,63.80
2019-03-28T19:45:24.523Z,64.10
2019-03-28T19:47:55.323Z,64.30
2019-03-28T19:50:29.539Z,64.40
2019-03-28T19:53:03.425Z,64.40
2019-03-28T19:55:34.406Z,64.90
2019-03-28T19:58:05.451Z,65.20
2019-03-28T20:00:36.220Z,64.80
2019-03-28T20:03:06.912Z,65.20
2019-03-28T20:05:47.559Z,65.10
2019-03-28T20:08:15.956Z,65.10
2019-03-28T20:10:42.175Z,64.90
2019-03-28T20:13:12.920Z,64.90
2019-03-28T20:15:43.652Z,65.20
2019-03-28T20:18:14.419Z,65.50
2019-03-28T20:20:45.123Z,65.80
2019-03-28T20:23:15.880Z,66.00
2019-03-28T20:25:46.537Z,66.00
2019-03-28T20:28:17.307Z,66.30
2019-03-28T20:30:47.995Z,66.50
2019-03-28T20:33:18.697Z,66.20
2019-03-28T20:36:05.815Z,66.70
2019-03-28T20:38:22.002Z,66.70
2019-03-28T20:40:52.755Z,66.90
2019-03-28T20:43:23.501Z,66.90
2019-03-28T20:45:54.273Z,66.70
2019-03-28T20:48:24.959Z,66.80
2019-03-28T20:50:55.695Z,66.80
2019-03-28T20:53:26.364Z,67.00
2019-03-28T20:55:57.081Z,66.60
2019-03-28T20:58:29.021Z,66.40
2019-03-28T21:00:59.717Z,66.80
2019-03-28T21:03:30.370Z,66.90
2019-03-28T21:06:14.331Z,66.50
2019-03-28T21:08:34.103Z,67.00
2019-03-28T21:11:04.771Z,67.10
2019-03-28T21:13:36.035Z,66.90
2019-03-28T21:16:06.856Z,67.00
2019-03-28T21:18:37.523Z,66.90
2019-03-28T21:21:08.186Z,67.20
2019-03-28T21:23:38.864Z,67.20
2019-03-28T21:26:09.902Z,67.40
2019-03-28T21:28:46.985Z,67.60
2019-03-28T21:31:12.867Z,67.50
2019-03-28T21:33:43.593Z,67.60
2019-03-28T21:36:28.349Z,68.00
2019-03-28T21:38:46.556Z,67.90
2019-03-28T21:41:17.251Z,68.60
2019-03-28T21:43:47.896Z,68.80
2019-03-28T21:46:18.778Z,68.70
2019-03-28T21:48:49.444Z,69.00
2019-03-28T21:51:22.112Z,69.30
2019-03-28T21:53:54.349Z,68.90
2019-03-28T21:56:26.052Z,68.90
2019-03-28T21:58:56.884Z,68.70
2019-03-28T22:01:28.960Z,68.70
2019-03-28T22:04:00.749Z,68.70
2019-03-28T22:06:42.402Z,68.70
2019-03-28T22:09:09.377Z,68.60
2019-03-28T22:11:40.105Z,68.60
2019-03-28T22:14:13.732Z,69.30
2019-03-28T22:16:45.150Z,69.30
2019-03-28T22:19:17.910Z,69.30
2019-03-28T22:21:50.507Z,69.30
2019-03-28T22:24:21.122Z,70.40
2019-03-28T22:26:53.717Z,70.50
2019-03-28T22:29:28.011Z,70.80
2019-03-28T22:31:59.747Z,71.00
2019-03-28T22:34:32.249Z,70.90
2019-03-28T22:37:10.319Z,70.60
2019-03-28T22:39:40.979Z,70.60
2019-03-28T22:42:14.945Z,70.90
2019-03-28T22:44:45.657Z,70.70
2019-03-28T22:47:16.295Z,70.70
2019-03-28T22:49:48.149Z,71.70
2019-03-28T22:52:20.741Z,70.30
2019-03-28T22:54:52.237Z,70.40
2019-03-28T22:57:25.715Z,70.60
2019-03-28T22:59:56.461Z,70.60
2019-03-28T23:02:28.993Z,70.60
2019-03-28T23:04:59.517Z,70.70
2019-03-28T23:07:30.273Z,70.90
2019-03-28T23:10:12.302Z,71.30
2019-03-28T23:12:34.767Z,71.20
2019-03-28T23:15:08.198Z,71.50
2019-03-28T23:17:38.791Z,71.70
2019-03-28T23:20:14.971Z,72.20
2019-03-28T23:22:47.395Z,72.60
2019-03-28T23:25:25.686Z,72.60
2019-03-28T23:27:57.411Z,72.80
2019-03-28T23:30:29.276Z,73.30
2019-03-28T23:32:59.923Z,73.10
2019-03-28T23:35:35.247Z,72.90
2019-03-28T23:38:04.904Z,72.70
2019-03-28T23:40:37.186Z,72.90
2019-03-28T23:43:07.534Z,73.70
2019-03-28T23:45:38.704Z,73.80
2019-03-28T23:48:11.308Z,74.50
2019-03-28T23:50:44.738Z,74.80
2019-03-28T23:53:15.448Z,75.00
2019-03-28T23:55:46.810Z,75.50
2019-03-28T23:58:17.594Z,75.60
